PAIK

Details ICAO PAIK (IAN)
Name Kiana B BAKER MEM
Region USA (Alaska)
Timezone America/Anchorage (UTC-8.0)
Plans Departing 0
Arriving 0
Stats Elevation 166 ft / 51 m (AMSL)
Location 66.975955° -160.436534°
Runways 1
Magnetic Variation 12.383° E
Sunrise 2018-05-23 12:08:23 UTC / 2018-05-23 04:08:23 Local
Sunset 2018-05-24 09:11:33 UTC / 2018-05-24 01:11:33 Local
Advertisement - Login to hide

Runways

ID Width Length Bearing (true) Bearing (mag) Surface Threshold Offset Overrun Length
06 98 ft / 30 m 3,388 ft / 1,033 m 81.92° 69.54° Gravel 0 ft / 0 m 299 ft / 91 m
24 98 ft / 30 m 3,388 ft / 1,033 m 261.94° 249.56° Gravel 0 ft / 0 m 299 ft / 91 m

Map

Weather


0- 5 10 15 20 25 30 35+ Temperature / ° C

Clouds and Precipitation
Forecast for 2018-05-23 12:00 UTC. Updated 6 hours ago

Ground ~20,000 ft ~40,000 ft Winds

METAR

PAIK 231656Z AUTO 09004KT 10SM CLR 05/01 A2971 RMK AO2 SLP065 T00500011

TAF

Not found

Frequencies

Recorded 119.02 MHz AWOS-3
Approach 119.20 MHz Anchorage ARTCC
Unicom 122.70 MHz CTAF
Warning: Do not use this data for real-world aviation or navigation. No guarantee of current accuracy is given.